Kunsan Air Base
RKJK : now visible

Airfield :











YOU CAN JOIN US ON...

 
LOGIN :

Register | Disclaimer

   EN    FR    IT 

 









Legend :    VFR   Marginal VFR   IFR   Intensive IFR   Very Intensive IFR
Visi :
Ceiling :
>= 8 km
>= 3000ft
5 to 8 km
1000 to 3000 ft
1500m to 5 km
500 to 1000 ft
800 to 1500m
200 to 500 ft
< 800m
< 200 ft
Symbols :   Thunderstorms  Fog  Heavy snow  Heavy precipitations  Wind > 20 kt







- Airport Elevation : 29 ft
- IATA code : KUV


RKJK - Kunsan Air Base

CURRENT METAR :
  • 210556Z 27015KT 10SM CLR 21/13 A2974 RMK AO2A SLP075 T02060133 10206 20181 57009 $

EXPIRED METARs :
  • 210456Z 27014KT 10SM FEW170 20/13 A2975 RMK AO2A SLP079 T02010131 $
  • 210356Z 27014KT 10SM FEW060 FEW080 SCT100 BKN130 BKN160 OVC180 20/13 A2975 RMK AO2A SLP079 T02010128 $

TAF AMD TAF RKJK
Valid from the 21 at 00:00 until the 22 at 05:00 UTC


210032Z 2100/2205 21012KT 9999 SKC QNH2972INS
BECMG 2110/2111 22009KT 6000 BR SKC QNH2980INS TX20/2106Z TN07/2121Z
RKRR FIR / Asia



MET'MAP, your aeronautical weather chart ! - Copyright ORBIFLY December 2007 - Disclaimer

ORBIFLY MET'MAP TEAM :

Programming & Development : Alexandra Zaïnal
Concept & Development : Baudouin d'Aumeries
Co-Development & Prog : Marc-Olivier Méhu
Technical & hardware support : Manuel Goepfert

Contact : metmap@orbifly.com




SOURCES & CREDITS :

   NOAA       Earth
Advisory